Time;durP1;ratioP1;P1;durP2;ratioP2;P2;SDS_P1;SDS_P2;PMS_P1;PMS_P2;Temp;Humidity;BMP_temperature;BMP_pressure;BME280_temperature;BME280_humidity;BME280_pressure;Samples;Min_cycle;Max_cycle;Signal;HPM_P1;HPM_P2
2021/11/30 00:00:12;;;;;;;1.00;1.00;;;-0.20;1.40;;;0.10;100.00;95081.02;647675;216;42928;-75
2021/11/30 00:02:53;;;;;;;0.47;0.40;;;-0.20;1.40;;;0.04;100.00;95069.80;649007;212;32125;-75
2021/11/30 00:05:35;;;;;;;1.52;1.08;;;-0.30;1.40;;;0.11;100.00;95068.98;639737;216;31718;-76
2021/11/30 00:08:20;;;;;;;0.60;0.60;;;-0.20;1.40;;;0.09;100.00;95072.00;647255;212;31549;-76
2021/11/30 00:11:02;;;;;;;1.85;0.90;;;-0.30;1.40;;;0.04;100.00;95070.88;616892;226;31896;-75
2021/11/30 00:13:52;;;;;;;1.50;1.17;;;-0.30;1.40;;;0.03;100.00;95084.82;644815;216;32177;-74
2021/11/30 00:16:40;;;;;;;0.80;0.55;;;-0.30;1.40;;;-0.01;100.00;95074.78;644509;216;42148;-75
2021/11/30 00:19:26;;;;;;;0.60;0.60;;;-0.30;1.40;;;-0.04;100.00;95081.67;646869;212;31500;-75
2021/11/30 00:22:08;;;;;;;1.02;0.55;;;-0.30;1.40;;;-0.10;100.00;95078.98;646175;213;31831;-75
2021/11/30 00:24:50;;;;;;;0.80;0.80;;;-0.40;1.40;;;-0.03;100.00;95079.34;647075;216;31542;-75
2021/11/30 00:27:31;;;;;;;2.40;0.90;;;-0.40;1.40;;;-0.08;100.00;95093.49;648853;216;31502;-75
2021/11/30 00:30:13;;;;;;;2.60;0.90;;;-0.40;1.40;;;-0.18;100.00;95087.63;645764;212;31534;-75
2021/11/30 00:32:57;;;;;;;1.30;1.20;;;-0.50;1.40;;;-0.11;100.00;95100.44;647501;212;32125;-75
2021/11/30 00:35:50;;;;;;;0.45;0.40;;;-0.50;1.40;;;-0.17;100.00;95093.44;647232;216;31622;-75
2021/11/30 00:38:32;;;;;;;0.60;0.55;;;-0.50;1.40;;;-0.12;100.00;95099.41;647692;216;31518;-75
2021/11/30 00:41:14;;;;;;;0.90;0.90;;;-0.50;1.40;;;-0.03;100.00;95097.50;646242;212;31502;-75
2021/11/30 00:43:57;;;;;;;0.60;0.50;;;-0.50;1.40;;;-0.06;100.00;95096.19;650638;216;31580;-75
2021/11/30 00:46:40;;;;;;;1.60;1.10;;;-0.50;1.40;;;-0.07;100.00;95100.13;628167;221;31787;-75
2021/11/30 00:49:19;;;;;;;1.48;1.10;;;-0.50;1.40;;;-0.12;100.00;95096.32;648549;212;42496;-76
2021/11/30 00:52:04;;;;;;;0.70;0.60;;;-0.50;1.40;;;-0.07;100.00;95097.72;648284;216;31565;-75
2021/11/30 00:54:47;;;;;;;0.40;0.32;;;-0.40;1.40;;;-0.05;100.00;95101.48;618047;222;32117;-75
2021/11/30 00:57:31;;;;;;;0.80;0.70;;;-0.40;1.40;;;0.05;100.00;95108.83;646382;212;31582;-75
2021/11/30 01:00:15;;;;;;;1.15;0.90;;;-0.40;1.40;;;0.05;100.00;95111.77;617961;222;31965;-76
2021/11/30 01:02:57;;;;;;;0.40;0.40;;;-0.40;1.40;;;0.00;100.00;95114.95;648788;212;31516;-75
2021/11/30 01:05:39;;;;;;;0.50;0.50;;;-0.30;1.40;;;0.02;100.00;95112.47;638018;216;31677;-75
2021/11/30 01:08:23;;;;;;;0.90;0.60;;;-0.30;1.40;;;0.05;100.00;95115.43;647904;212;32101;-75
2021/11/30 01:11:05;;;;;;;0.98;0.85;;;-0.30;1.40;;;0.08;100.00;95116.27;648201;216;31515;-75
2021/11/30 01:13:47;;;;;;;0.80;0.60;;;-0.30;1.40;;;0.11;100.00;95119.56;646440;215;31536;-75
2021/11/30 01:16:29;;;;;;;0.75;0.75;;;-0.20;1.40;;;0.14;100.00;95129.09;646283;212;31511;-75
2021/11/30 01:19:13;;;;;;;2.00;0.70;;;-0.20;1.40;;;0.13;100.00;95119.64;620231;226;31897;-75
2021/11/30 01:21:55;;;;;;;0.85;0.85;;;-0.20;1.40;;;0.08;100.00;95121.50;644997;212;32158;-75
2021/11/30 01:24:40;;;;;;;0.80;0.80;;;-0.20;1.40;;;0.14;100.00;95127.33;618481;226;32325;-75
2021/11/30 01:27:21;;;;;;;0.50;0.50;;;-0.20;1.40;;;0.10;100.00;95136.08;645621;216;31503;-75
2021/11/30 01:30:04;;;;;;;0.40;0.30;;;-0.20;1.40;;;0.15;100.00;95132.73;644991;212;31752;-75
2021/11/30 01:32:48;;;;;;;0.60;0.50;;;-0.20;1.40;;;0.15;100.00;95140.19;646897;216;31596;-75
2021/11/30 01:35:55;;;;;;;0.40;0.40;;;-0.20;1.40;;;0.16;100.00;95137.16;648848;212;31655;-75
2021/11/30 01:38:36;;;;;;;1.17;1.08;;;-0.10;1.40;;;0.19;100.00;95129.50;647550;216;31596;-75
2021/11/30 01:41:18;;;;;;;1.50;0.98;;;-0.20;1.40;;;0.14;100.00;95134.42;645903;212;31546;-75
2021/11/30 01:46:54;;;;;;;2.40;1.10;;;-0.20;1.40;;;0.19;100.00;95142.08;647051;212;31517;-75
2021/11/30 01:49:33;;;;;;;1.80;0.73;;;-0.20;1.40;;;0.16;100.00;95138.81;646950;216;31516;-75
2021/11/30 01:52:06;;;;;;;1.40;0.68;;;-0.20;1.40;;;0.19;100.00;95138.13;645841;216;31487;-74
2021/11/30 01:54:50;;;;;;;0.50;0.40;;;-0.20;1.40;;;0.16;100.00;95138.59;647128;216;31494;-75
2021/11/30 01:57:30;;;;;;;1.02;0.95;;;-0.20;1.40;;;0.22;100.00;95138.59;645953;216;31493;-75
2021/11/30 02:00:12;;;;;;;0.70;0.70;;;-0.10;1.40;;;0.23;100.00;95148.69;646995;212;31568;-76
2021/11/30 02:02:54;;;;;;;0.90;0.50;;;-0.10;1.40;;;0.20;100.00;95150.13;647988;212;31528;-75
2021/11/30 02:05:37;;;;;;;0.70;0.60;;;-0.10;1.40;;;0.21;100.00;95139.17;646765;216;31549;-75
2021/11/30 02:08:17;;;;;;;1.70;0.50;;;-0.20;1.40;;;0.20;100.00;95134.58;646484;212;31496;-75
2021/11/30 02:11:03;;;;;;;0.95;0.65;;;-0.10;1.40;;;0.21;100.00;95136.30;645426;212;31694;-75
2021/11/30 02:13:44;;;;;;;0.57;0.52;;;-0.20;1.40;;;0.24;100.00;95127.11;648111;216;31629;-75
2021/11/30 02:16:25;;;;;;;1.00;0.60;;;-0.10;1.40;;;0.21;100.00;95137.73;621569;226;31795;-75
2021/11/30 02:19:07;;;;;;;0.43;0.40;;;-0.20;1.40;;;0.24;100.00;95122.95;647445;212;31661;-75
2021/11/30 02:21:49;;;;;;;0.60;0.60;;;-0.10;1.40;;;0.26;100.00;95129.90;647314;216;31479;-75
2021/11/30 02:24:30;;;;;;;0.70;0.50;;;-0.10;1.40;;;0.32;100.00;95132.64;650590;212;31462;-76
2021/11/30 02:27:12;;;;;;;0.50;0.50;;;-0.10;1.40;;;0.30;100.00;95125.53;645500;212;31505;-76
2021/11/30 02:29:55;;;;;;;0.70;0.50;;;0.00;1.40;;;0.31;100.00;95124.27;647689;216;31487;-75
2021/11/30 02:32:36;;;;;;;0.52;0.52;;;0.00;1.40;;;0.34;100.00;95126.00;618262;226;32178;-75
2021/11/30 02:35:57;;;;;;;0.50;0.30;;;-0.10;1.40;;;0.28;100.00;95117.35;646723;216;32111;-76
2021/11/30 02:38:45;;;;;;;0.90;0.40;;;-0.10;1.40;;;0.28;100.00;95123.00;646737;215;31532;-74
2021/11/30 02:41:27;;;;;;;0.40;0.40;;;-0.10;1.40;;;0.23;100.00;95113.93;645583;212;31509;-75
2021/11/30 02:44:08;;;;;;;1.30;1.00;;;-0.10;1.40;;;0.22;100.00;95122.13;644700;213;31500;-75
2021/11/30 02:46:52;;;;;;;0.40;0.32;;;-0.10;1.40;;;0.20;100.00;95128.06;645863;212;31840;-75
2021/11/30 02:49:33;;;;;;;0.82;0.82;;;-0.10;1.40;;;0.24;100.00;95127.32;646523;216;31682;-75
2021/11/30 02:52:17;;;;;;;0.50;0.50;;;-0.10;1.40;;;0.25;100.00;95128.77;648730;216;31564;-75
2021/11/30 02:55:03;;;;;;;0.50;0.40;;;-0.10;1.40;;;0.21;100.00;95132.98;648053;212;31683;-76
2021/11/30 02:57:51;;;;;;;0.40;0.30;;;-0.10;1.40;;;0.24;100.00;95140.54;649129;216;31874;-75
2021/11/30 03:00:32;;;;;;;1.10;1.00;;;-0.10;1.40;;;0.27;100.00;95135.45;649919;216;31548;-75
2021/11/30 03:03:14;;;;;;;0.40;0.40;;;-0.10;1.40;;;0.30;100.00;95148.98;647470;212;31533;-75
2021/11/30 03:05:56;;;;;;;0.90;0.50;;;-0.10;1.40;;;0.30;100.00;95128.52;647387;216;31757;-75
2021/11/30 03:09:08;;;;;;;0.40;0.35;;;0.00;1.40;;;0.36;100.00;95140.09;645827;216;31546;-75
2021/11/30 03:11:53;;;;;;;0.50;0.50;;;0.00;1.40;;;0.33;100.00;95128.06;646976;216;31546;-75
2021/11/30 03:14:35;;;;;;;0.60;0.60;;;0.00;1.40;;;0.37;100.00;95136.70;647256;216;31506;-75
2021/11/30 03:17:16;;;;;;;0.70;0.60;;;0.00;1.40;;;0.34;100.00;95135.33;647016;216;31502;-75
2021/11/30 03:20:01;;;;;;;0.70;0.70;;;0.00;1.40;;;0.43;100.00;95127.47;645351;212;32255;-75
2021/11/30 03:22:43;;;;;;;0.60;0.60;;;0.00;1.40;;;0.41;100.00;95155.17;647637;216;32623;-75
2021/11/30 03:25:24;;;;;;;0.70;0.32;;;0.10;1.40;;;0.45;100.00;95143.23;619152;226;31880;-75
2021/11/30 03:28:06;;;;;;;1.27;0.90;;;0.10;1.40;;;0.48;100.00;95149.33;646232;216;31483;-75
2021/11/30 03:30:57;;;;;;;0.50;0.50;;;0.10;1.40;;;0.48;100.00;95144.59;646845;215;31530;-75
2021/11/30 03:35:51;;;;;;;0.60;0.40;;;0.20;1.40;;;0.53;100.00;95155.00;645531;216;31559;-75
2021/11/30 03:38:36;;;;;;;0.40;0.40;;;0.20;1.40;;;0.54;100.00;95153.30;650058;216;32057;-75
2021/11/30 03:41:17;;;;;;;0.40;0.30;;;0.20;1.40;;;0.52;100.00;95152.00;648299;212;32132;-75
2021/11/30 03:43:59;;;;;;;0.43;0.30;;;0.20;1.40;;;0.53;100.00;95152.33;647130;212;31526;-75
2021/11/30 03:46:50;;;;;;;0.50;0.50;;;0.20;1.40;;;0.52;100.00;95146.45;646628;212;31518;-77
2021/11/30 03:49:37;;;;;;;0.70;0.70;;;0.20;1.40;;;0.55;100.00;95154.80;648200;216;31542;-75
2021/11/30 03:52:19;;;;;;;0.50;0.50;;;0.20;1.40;;;0.58;100.00;95154.02;620371;222;31848;-74
2021/11/30 03:55:01;;;;;;;0.90;0.80;;;0.20;1.40;;;0.59;100.00;95155.31;649010;216;31476;-75
2021/11/30 03:57:43;;;;;;;0.40;0.30;;;0.20;1.40;;;0.53;100.00;95155.63;645762;216;31622;-74
2021/11/30 04:00:24;;;;;;;0.50;0.40;;;0.20;1.40;;;0.53;100.00;95160.66;649079;216;31603;-74
2021/11/30 04:03:06;;;;;;;0.50;0.50;;;0.20;1.40;;;0.48;100.00;95162.61;647876;216;31476;-75
2021/11/30 04:05:47;;;;;;;1.40;0.90;;;0.20;1.40;;;0.52;100.00;95164.31;638521;216;42263;-75
2021/11/30 04:08:29;;;;;;;0.50;0.50;;;0.20;1.40;;;0.53;100.00;95158.41;646928;212;31476;-76
2021/11/30 04:11:11;;;;;;;0.60;0.60;;;0.20;1.40;;;0.54;100.00;95159.22;650045;216;31509;-74
2021/11/30 04:13:56;;;;;;;1.30;1.20;;;0.20;1.40;;;0.49;100.00;95151.22;647025;212;31543;-74
2021/11/30 04:16:37;;;;;;;0.55;0.47;;;0.20;1.40;;;0.52;100.00;95154.45;647137;212;31520;-75
2021/11/30 04:19:19;;;;;;;0.80;0.80;;;0.20;1.40;;;0.53;100.00;95150.30;639968;219;32004;-75
2021/11/30 04:22:01;;;;;;;0.80;0.60;;;0.20;1.40;;;0.52;100.00;95155.19;648308;216;42265;-74
2021/11/30 04:24:42;;;;;;;0.50;0.50;;;0.20;1.40;;;0.52;100.00;95168.96;620989;222;31854;-73
2021/11/30 04:27:24;;;;;;;0.40;0.40;;;0.20;1.40;;;0.55;100.00;95158.48;647174;212;31504;-75
2021/11/30 04:30:07;;;;;;;0.60;0.50;;;0.20;1.40;;;0.58;100.00;95161.59;618031;222;32557;-73
2021/11/30 04:32:49;;;;;;;0.60;0.60;;;0.20;1.40;;;0.64;100.00;95170.78;648739;216;31546;-74
2021/11/30 04:35:52;;;;;;;0.80;0.80;;;0.20;1.40;;;0.55;100.00;95158.76;644580;212;31616;-75
2021/11/30 04:38:33;;;;;;;0.80;0.60;;;0.30;1.40;;;0.61;100.00;95163.86;648707;216;31588;-75
2021/11/30 04:41:18;;;;;;;1.40;1.10;;;0.20;1.40;;;0.53;100.00;95161.77;648923;212;31460;-75
2021/11/30 04:44:00;;;;;;;1.40;1.30;;;0.20;1.40;;;0.54;100.00;95170.95;648478;212;31791;-75
2021/11/30 04:47:00;;;;;;;0.80;0.70;;;0.20;1.40;;;0.56;100.00;95168.34;648189;212;31893;-75
2021/11/30 04:49:52;;;;;;;1.00;0.80;;;0.20;1.40;;;0.53;100.00;95171.73;645259;216;31614;-74
2021/11/30 04:52:23;;;;;;;1.30;1.20;;;0.10;1.40;;;0.46;100.00;95166.86;647478;216;31603;-75
2021/11/30 04:55:10;;;;;;;1.70;0.60;;;0.20;1.40;;;0.49;100.00;95164.33;645291;216;32040;-74
2021/11/30 04:57:54;;;;;;;0.50;0.35;;;0.10;1.40;;;0.49;100.00;95164.02;646720;216;31566;-75
2021/11/30 05:00:36;;;;;;;0.50;0.50;;;0.10;1.40;;;0.52;100.00;95159.52;647251;216;31498;-75
2021/11/30 05:03:17;;;;;;;0.57;0.55;;;0.20;1.40;;;0.49;100.00;95161.23;648515;216;32114;-75
2021/11/30 05:05:59;;;;;;;0.60;0.50;;;0.20;1.40;;;0.51;100.00;95164.73;610877;223;32930;-75
2021/11/30 05:08:40;;;;;;;0.40;0.40;;;0.20;1.40;;;0.49;100.00;95177.73;646638;216;31463;-75
2021/11/30 05:11:25;;;;;;;0.50;0.50;;;0.20;1.40;;;0.49;100.00;95170.20;646673;212;31525;-75
2021/11/30 05:14:07;;;;;;;1.00;0.70;;;0.20;1.40;;;0.44;100.00;95169.13;648948;216;31588;-75
2021/11/30 05:16:48;;;;;;;1.00;0.43;;;0.10;1.40;;;0.44;100.00;95170.73;618040;226;32037;-75
2021/11/30 05:19:30;;;;;;;0.70;0.60;;;0.10;1.40;;;0.43;100.00;95166.98;647713;216;31536;-75
2021/11/30 05:22:13;;;;;;;0.88;0.65;;;0.10;1.40;;;0.50;100.00;95175.12;645027;212;31487;-75
2021/11/30 05:24:54;;;;;;;0.70;0.60;;;0.10;1.40;;;0.48;100.00;95158.93;646243;216;31533;-74
2021/11/30 05:27:40;;;;;;;1.00;0.40;;;0.20;1.40;;;0.47;100.00;95154.55;645245;212;31650;-75
2021/11/30 05:30:21;;;;;;;1.00;0.60;;;0.20;1.40;;;0.51;100.00;95153.27;642721;216;31375;-74
2021/11/30 05:35:54;;;;;;;1.00;0.50;;;0.20;1.40;;;0.49;100.00;95161.94;619860;222;32027;-75
2021/11/30 05:38:37;;;;;;;1.20;0.60;;;0.10;1.40;;;0.49;100.00;95175.21;631293;222;31745;-74
2021/11/30 05:41:17;;;;;;;2.10;0.80;;;0.20;1.40;;;0.57;100.00;95160.20;648364;216;31532;-75
2021/11/30 05:44:01;;;;;;;0.90;0.80;;;0.20;1.40;;;0.56;100.00;95160.13;618731;226;32009;-75
2021/11/30 05:46:46;;;;;;;0.93;0.70;;;0.30;1.40;;;0.45;100.00;95156.19;648703;216;31509;-76
2021/11/30 05:49:27;;;;;;;0.88;0.80;;;0.10;1.40;;;0.51;100.00;95148.47;646913;212;31534;-75
2021/11/30 05:52:10;;;;;;;0.73;0.73;;;0.10;1.40;;;0.51;100.00;95158.33;646278;212;31550;-74
2021/11/30 05:54:59;;;;;;;0.98;0.60;;;0.20;1.40;;;0.47;100.00;95147.03;644492;212;31657;-76
2021/11/30 05:57:46;;;;;;;1.30;0.80;;;0.10;1.40;;;0.40;100.00;95150.84;648314;216;31554;-75
2021/11/30 06:00:30;;;;;;;0.80;0.50;;;0.10;1.40;;;0.39;100.00;95145.61;619513;226;31911;-75
2021/11/30 06:05:59;;;;;;;0.75;0.50;;;0.10;1.40;;;0.40;100.00;95152.34;641694;212;32272;-74
2021/11/30 06:08:48;;;;;;;1.00;0.70;;;0.00;1.40;;;0.38;100.00;95137.86;644014;213;31511;-75
2021/11/30 06:11:30;;;;;;;1.20;0.60;;;0.00;1.40;;;0.44;100.00;95132.50;621743;226;31830;-75
2021/11/30 06:14:12;;;;;;;0.80;0.80;;;0.10;1.40;;;0.47;100.00;95126.55;646669;216;31510;-73
2021/11/30 06:16:56;;;;;;;1.60;0.60;;;0.10;1.40;;;0.49;100.00;95132.59;645273;216;31648;-75
2021/11/30 06:19:41;;;;;;;0.80;0.80;;;0.10;1.40;;;0.52;100.00;95155.95;619210;222;31869;-75
2021/11/30 06:22:22;;;;;;;0.60;0.60;;;0.20;1.40;;;0.52;100.00;95134.88;647361;212;31475;-75
2021/11/30 06:25:05;;;;;;;1.10;0.70;;;0.20;1.40;;;0.55;100.00;95155.66;645271;212;31981;-75
2021/11/30 06:27:52;;;;;;;2.90;0.80;;;0.20;1.40;;;0.55;100.00;95132.72;619424;226;31859;-74
2021/11/30 06:30:36;;;;;;;1.10;1.00;;;0.20;1.40;;;0.54;100.00;95150.70;647915;212;31508;-75
2021/11/30 06:35:51;;;;;;;0.80;0.80;;;0.20;1.40;;;0.47;100.00;95149.11;646739;216;31585;-75
2021/11/30 06:38:33;;;;;;;1.02;1.02;;;0.10;1.40;;;0.53;100.00;95128.44;650126;212;32441;-75
2021/11/30 06:41:15;;;;;;;0.50;0.50;;;0.20;1.40;;;0.53;100.00;95152.86;648846;216;32591;-75
2021/11/30 06:43:56;;;;;;;0.90;0.70;;;0.20;1.40;;;0.50;100.00;95183.39;646176;216;35450;-75
2021/11/30 06:46:38;;;;;;;0.90;0.68;;;0.20;1.40;;;0.49;100.00;95145.09;646658;212;42962;-74
2021/11/30 06:49:20;;;;;;;0.67;0.67;;;0.20;1.40;;;0.53;100.00;95126.45;619650;222;31835;-75
2021/11/30 06:52:02;;;;;;;0.90;0.47;;;0.20;1.40;;;0.53;100.00;95136.55;650408;212;31564;-75
2021/11/30 06:54:45;;;;;;;0.73;0.73;;;0.20;1.40;;;0.54;100.00;95139.59;648340;212;31467;-75
2021/11/30 06:57:25;;;;;;;1.00;0.80;;;0.20;1.40;;;0.67;100.00;95142.27;624783;221;32195;-76
2021/11/30 07:02:45;;;;;;;1.10;0.50;;;0.30;1.40;;;0.65;100.00;95170.95;649556;216;31487;-75
2021/11/30 07:05:30;;;;;;;0.70;0.50;;;0.30;1.40;;;0.60;100.00;95150.79;640442;216;31673;-75
2021/11/30 07:08:16;;;;;;;3.87;1.20;;;0.30;1.40;;;0.58;100.00;95144.58;618200;222;32438;-75
2021/11/30 07:11:04;;;;;;;1.00;0.40;;;0.30;1.40;;;0.61;100.00;95134.84;622668;225;31949;-75
2021/11/30 07:13:42;;;;;;;0.75;0.57;;;0.30;1.40;;;0.72;100.00;95143.02;647376;216;42176;-74
2021/11/30 07:16:27;;;;;;;0.77;0.60;;;0.40;1.40;;;0.75;100.00;95137.16;642471;217;31420;-75
2021/11/30 07:19:09;;;;;;;1.30;0.80;;;0.40;1.40;;;0.77;100.00;95120.75;648371;216;31774;-75
2021/11/30 07:21:51;;;;;;;0.50;0.40;;;0.40;1.40;;;0.82;100.00;95128.00;646888;216;32836;-75
2021/11/30 07:24:32;;;;;;;0.62;0.40;;;0.50;1.40;;;0.74;100.00;95114.55;647823;212;31602;-75
2021/11/30 07:27:14;;;;;;;1.50;0.52;;;0.40;1.40;;;0.73;100.00;95125.33;645017;212;42228;-74
2021/11/30 07:29:56;;;;;;;0.90;0.60;;;0.40;1.40;;;0.76;100.00;95135.78;648333;216;31874;-75
2021/11/30 07:32:37;;;;;;;0.50;0.50;;;0.40;1.40;;;0.73;100.00;95122.77;647561;216;31444;-75
2021/11/30 07:35:51;;;;;;;0.85;0.50;;;0.40;1.40;;;0.68;100.00;95140.20;648996;212;31499;-75
2021/11/30 07:38:32;;;;;;;1.17;0.98;;;0.40;1.40;;;0.72;100.00;95127.02;646481;216;31529;-75
2021/11/30 07:41:17;;;;;;;2.10;0.50;;;0.40;1.40;;;0.65;100.00;95130.89;644978;212;32032;-76
2021/11/30 07:43:59;;;;;;;5.15;1.00;;;0.30;1.40;;;0.66;100.00;95110.58;647274;212;31487;-75
2021/11/30 07:46:44;;;;;;;1.00;0.45;;;0.30;1.40;;;0.63;100.00;95098.81;649522;216;32458;-75
2021/11/30 07:49:26;;;;;;;1.07;0.97;;;0.30;1.40;;;0.63;100.00;95123.55;618125;222;32429;-75
2021/11/30 07:52:12;;;;;;;0.70;0.50;;;0.30;1.40;;;0.56;100.00;95105.45;645125;212;31481;-75
2021/11/30 07:54:52;;;;;;;0.40;0.30;;;0.10;1.40;;;0.40;100.00;95098.21;646079;212;31577;-75
2021/11/30 07:57:34;;;;;;;6.00;0.82;;;0.10;1.40;;;0.37;100.00;95097.56;618860;222;43002;-75
2021/11/30 08:00:16;;;;;;;3.10;0.70;;;0.00;1.40;;;0.47;100.00;95074.61;645631;216;42179;-75
2021/11/30 08:02:58;;;;;;;2.80;0.57;;;0.10;1.40;;;0.54;100.00;95077.57;646431;216;31558;-75
2021/11/30 08:05:39;;;;;;;0.50;0.50;;;0.20;1.40;;;0.62;100.00;95074.91;641120;212;31649;-75
2021/11/30 08:08:22;;;;;;;0.70;0.70;;;0.10;1.40;;;0.48;100.00;95080.59;648008;216;31618;-75
2021/11/30 08:11:07;;;;;;;2.60;0.90;;;0.10;1.40;;;0.47;100.00;95059.73;646685;212;31521;-75
2021/11/30 08:13:49;;;;;;;0.47;0.30;;;0.10;1.40;;;0.53;100.00;95052.70;647219;215;31957;-75
2021/11/30 08:16:31;;;;;;;1.00;0.60;;;0.10;1.40;;;0.47;100.00;95057.39;648909;216;31742;-75
2021/11/30 08:19:16;;;;;;;0.50;0.40;;;0.10;1.40;;;0.54;100.00;95044.61;646814;213;31901;-75
2021/11/30 08:21:57;;;;;;;0.60;0.50;;;0.20;1.40;;;0.54;100.00;95051.86;647379;216;31793;-75
2021/11/30 08:24:39;;;;;;;0.60;0.60;;;0.20;1.40;;;0.64;100.00;95054.33;648658;216;32416;-75
2021/11/30 08:27:21;;;;;;;0.60;0.32;;;0.30;1.40;;;0.60;100.00;95030.62;645211;216;42694;-74
2021/11/30 08:30:03;;;;;;;0.50;0.50;;;0.30;1.40;;;0.56;100.00;95041.05;648345;212;31548;-75
2021/11/30 08:32:45;;;;;;;0.70;0.70;;;0.20;1.40;;;0.67;100.00;95030.68;630025;222;31686;-75
2021/11/30 08:35:52;;;;;;;1.23;0.80;;;0.30;1.40;;;0.61;100.00;95033.23;647606;212;31504;-75
2021/11/30 08:38:32;;;;;;;1.33;0.98;;;0.30;1.40;;;0.53;100.00;95032.22;646232;216;31792;-75
2021/11/30 08:41:15;;;;;;;3.80;0.50;;;0.20;1.40;;;0.51;100.00;95032.27;647562;216;31715;-75
2021/11/30 08:43:56;;;;;;;0.50;0.50;;;0.10;1.40;;;0.47;100.00;95036.06;647458;216;31661;-75
2021/11/30 08:46:38;;;;;;;0.40;0.30;;;0.10;1.40;;;0.29;100.00;95012.92;645321;216;31633;-75
2021/11/30 08:49:19;;;;;;;0.68;0.68;;;0.00;1.40;;;0.34;100.00;95038.35;647614;216;32380;-75
2021/11/30 08:52:01;;;;;;;0.60;0.60;;;0.00;1.40;;;0.34;100.00;95018.20;644498;216;32146;-76
2021/11/30 08:54:46;;;;;;;2.40;0.90;;;-0.10;1.40;;;0.23;100.00;95019.53;618455;225;31959;-75
2021/11/30 08:57:27;;;;;;;0.80;0.80;;;-0.20;1.40;;;0.15;100.00;94996.38;649608;212;31724;-76
2021/11/30 09:00:13;;;;;;;1.00;0.70;;;-0.20;1.40;;;0.12;100.00;94990.55;635250;220;31833;-76
2021/11/30 09:03:00;;;;;;;0.40;0.40;;;-0.20;1.40;;;0.08;100.00;95008.52;646162;216;31832;-74
2021/11/30 09:05:48;;;;;;;0.60;0.60;;;-0.20;1.40;;;0.05;100.00;94998.09;637180;216;31682;-76
2021/11/30 09:08:30;;;;;;;0.50;0.50;;;-0.20;1.40;;;0.11;100.00;95003.91;620793;222;32036;-76
2021/11/30 09:11:12;;;;;;;0.50;0.43;;;-0.20;1.40;;;0.10;100.00;94987.86;647969;216;31552;-76
2021/11/30 09:13:56;;;;;;;0.90;0.77;;;-0.20;1.40;;;0.06;100.00;94994.42;630306;221;31783;-76
2021/11/30 09:16:38;;;;;;;0.90;0.40;;;-0.30;1.40;;;0.02;100.00;94985.27;647707;212;31550;-76
2021/11/30 09:19:20;;;;;;;0.40;0.40;;;-0.30;1.40;;;0.06;100.00;94976.25;645750;213;31519;-75
2021/11/30 09:22:01;;;;;;;0.60;0.52;;;-0.20;1.40;;;0.09;100.00;94959.97;619641;225;31993;-75
2021/11/30 09:24:46;;;;;;;0.40;0.40;;;-0.20;1.40;;;0.19;100.00;94965.51;645825;212;31797;-76
2021/11/30 09:27:28;;;;;;;0.70;0.60;;;-0.20;1.40;;;0.21;100.00;94964.66;619936;226;31990;-76
2021/11/30 09:30:10;;;;;;;0.40;0.28;;;-0.10;1.40;;;0.32;100.00;94989.12;647871;212;31533;-75
2021/11/30 09:32:51;;;;;;;0.40;0.20;;;-0.10;1.40;;;0.22;100.00;94920.53;619225;226;32593;-75
2021/11/30 09:35:52;;;;;;;0.60;0.50;;;-0.10;1.40;;;0.15;100.00;94964.52;646964;212;31488;-76
2021/11/30 09:38:33;;;;;;;0.40;0.30;;;-0.20;1.40;;;0.18;100.00;94954.89;647723;212;31503;-76
2021/11/30 09:41:15;;;;;;;0.60;0.43;;;-0.10;1.40;;;0.15;100.00;94971.23;619857;226;31831;-74
2021/11/30 09:44:00;;;;;;;0.70;0.70;;;-0.20;1.40;;;0.10;100.00;94970.11;622048;226;32056;-75
2021/11/30 09:46:42;;;;;;;0.40;0.40;;;-0.20;1.40;;;0.03;100.00;94988.91;646704;212;31924;-76
2021/11/30 09:52:04;;;;;;;0.40;0.40;;;-0.20;1.40;;;0.09;100.00;94945.42;646312;216;31477;-77
2021/11/30 09:54:52;;;;;;;0.40;0.40;;;-0.20;1.40;;;0.09;100.00;94962.21;646668;213;31587;-74
2021/11/30 09:57:33;;;;;;;0.60;0.60;;;-0.30;1.40;;;-0.01;100.00;94925.84;646865;212;32054;-76
2021/11/30 10:00:16;;;;;;;0.40;0.30;;;-0.30;1.40;;;0.01;100.00;94936.45;647509;212;31493;-76
2021/11/30 10:02:59;;;;;;;0.70;0.60;;;-0.30;1.40;;;0.03;100.00;94921.28;646067;216;31504;-76
2021/11/30 10:05:39;;;;;;;0.40;0.30;;;-0.30;1.40;;;0.08;100.00;94909.39;618427;226;31849;-76
2021/11/30 10:08:31;;;;;;;0.40;0.30;;;-0.20;1.40;;;-0.01;100.00;94907.20;645499;212;31634;-77
2021/11/30 10:11:28;;;;;;;1.30;0.60;;;-0.20;1.40;;;0.12;100.00;94901.97;646461;212;31494;-77
2021/11/30 10:14:11;;;;;;;0.85;0.65;;;-0.20;1.40;;;0.20;100.00;94920.78;648058;216;31765;-74
2021/11/30 10:17:07;;;;;;;0.40;0.30;;;-0.20;1.40;;;0.15;100.00;94904.02;619467;225;31825;-78
2021/11/30 10:19:53;;;;;;;0.40;0.40;;;-0.20;1.40;;;0.24;100.00;94903.33;640600;215;31537;-76
2021/11/30 10:25:38;;;;;;;0.90;0.60;;;0.00;1.40;;;0.39;100.00;94880.39;646377;216;31449;-76
2021/11/30 10:28:18;;;;;;;0.40;0.30;;;0.10;1.40;;;0.50;100.00;94890.14;647601;212;32081;-76
2021/11/30 10:31:00;;;;;;;0.50;0.40;;;0.20;1.40;;;0.62;100.00;94857.66;618420;222;42516;-76
2021/11/30 10:35:55;;;;;;;0.80;0.60;;;0.30;1.40;;;0.61;100.00;94842.56;642207;214;31431;-76
2021/11/30 10:38:37;;;;;;;0.40;0.30;;;0.30;1.40;;;0.67;100.00;94841.20;647227;216;31518;-74
2021/11/30 10:41:25;;;;;;;0.40;0.30;;;0.30;1.40;;;0.66;100.00;94863.18;645256;212;31477;-77
2021/11/30 10:44:13;;;;;;;0.50;0.50;;;0.30;1.40;;;0.75;100.00;94844.59;620844;222;31895;-77
2021/11/30 10:46:54;;;;;;;0.40;0.40;;;0.40;1.40;;;0.77;100.00;94846.14;620114;222;31841;-76
2021/11/30 10:49:36;;;;;;;0.40;0.20;;;0.40;1.40;;;0.80;100.00;94851.55;646820;212;32129;-78
2021/11/30 10:52:18;;;;;;;1.20;0.50;;;0.40;1.40;;;0.77;100.00;94856.13;646472;212;31512;-76
2021/11/30 10:55:12;;;;;;;0.50;0.50;;;0.40;1.40;;;0.66;100.00;94827.06;620813;222;32554;-76
2021/11/30 10:57:52;;;;;;;0.40;0.20;;;0.30;1.40;;;0.66;100.00;94847.23;647173;216;31510;-76
2021/11/30 11:00:37;;;;;;;0.40;0.20;;;0.30;1.40;;;0.64;100.00;94854.47;647447;212;32166;-76
2021/11/30 11:03:23;;;;;;;0.40;0.20;;;0.10;1.40;;;0.63;100.00;94813.50;645645;216;31486;-77
2021/11/30 11:08:56;;;;;;;0.82;0.82;;;0.30;1.40;;;0.74;100.00;94828.69;647380;216;31510;-78
2021/11/30 11:11:44;;;;;;;0.40;0.20;;;0.30;1.40;;;0.66;100.00;94815.70;645947;212;31612;-76
2021/11/30 11:14:30;;;;;;;0.90;0.90;;;0.30;1.40;;;0.69;100.00;94829.48;619628;226;31955;-77
2021/11/30 11:17:25;;;;;;;0.40;0.40;;;0.40;1.40;;;0.75;100.00;94809.27;645174;216;31523;-73
2021/11/30 11:20:08;;;;;;;0.40;0.40;;;0.40;1.40;;;0.74;100.00;94804.69;645852;216;31532;-76
2021/11/30 11:24:52;;;;;;;0.68;0.50;;;0.50;1.40;;;0.79;100.00;94796.01;643049;216;31838;-76
2021/11/30 11:27:34;;;;;;;0.40;0.40;;;0.50;1.40;;;0.88;100.00;94763.66;647494;216;31725;-76
2021/11/30 11:30:15;;;;;;;0.80;0.30;;;0.60;1.40;;;0.86;100.00;94833.02;645584;212;31772;-76
2021/11/30 11:32:57;;;;;;;1.60;0.70;;;0.60;1.40;;;0.91;100.00;94774.88;646523;216;31902;-76
2021/11/30 11:35:50;;;;;;;0.70;0.40;;;0.60;1.40;;;0.99;100.00;94755.84;618134;226;31894;-75
2021/11/30 11:38:32;;;;;;;0.40;0.30;;;0.70;1.40;;;1.09;100.00;94769.58;646231;216;31546;-76
2021/11/30 11:41:17;;;;;;;0.40;0.30;;;0.80;1.40;;;1.15;100.00;94760.83;618341;226;31891;-73
2021/11/30 11:43:59;;;;;;;0.50;0.50;;;0.80;1.40;;;1.19;100.00;94756.88;646030;216;31586;-75
2021/11/30 11:46:45;;;;;;;0.40;0.30;;;0.90;1.40;;;1.29;100.00;94745.70;647699;216;31580;-78
2021/11/30 11:49:25;;;;;;;0.50;0.35;;;0.90;1.40;;;1.24;100.00;94756.52;647609;212;31501;-75
2021/11/30 11:52:06;;;;;;;0.50;0.40;;;1.00;1.40;;;1.31;100.00;94748.87;630435;222;32029;-75
2021/11/30 11:55:15;;;;;;;0.40;0.30;;;1.00;1.40;;;1.43;100.00;94730.10;642534;215;31478;-74
2021/11/30 11:58:01;;;;;;;0.50;0.50;;;1.10;1.40;;;1.42;100.00;94758.35;646963;212;31655;-77
2021/11/30 12:00:41;;;;;;;0.70;0.70;;;1.10;1.40;;;1.47;100.00;94757.45;647745;216;31613;-74
2021/11/30 12:03:23;;;;;;;0.40;0.30;;;1.10;1.40;;;1.43;100.00;94744.15;647626;216;31597;-76
2021/11/30 12:06:05;;;;;;;0.50;0.50;;;1.00;1.40;;;1.40;100.00;94733.03;618039;222;33244;-75
2021/11/30 12:09:04;;;;;;;0.40;0.30;;;1.10;1.40;;;1.28;100.00;94738.80;620589;222;31949;-76